Flight Track Log - Related Links

Times and Time Zones

All times are in EDT time to prevent confusion due to time zone crossing. See the UPS207 flight status page for this flight to view local times or setup timezone preferences in your user account.

Time Position Orientation Groundspeed Altitude Reporting Facility
EDT Latitude Longitude Course Direction KTS MPH feet Rate Location/Type
Fri 09:13:41 AM 39.8420 -75.3010 219° Southwest 194 223 1,400  Level FlightAware ADS-B
Fri 09:14:05 AM 39.8220 -75.3210 218° Southwest 237 273 1,900 1,385 Climbing FlightAware ADS-B
Fri 09:14:20 AM 39.8080 -75.3350 218° Southwest 255 293 2,300 2,930 Climbing FlightAware ADS-B
Fri 09:14:48 AM 39.7820 -75.3600 216° Southwest 254 292 4,000 3,563 Climbing FlightAware ADS-B
Fri 09:14:52 AM 39.7770 -75.3630 205° Southwest 255 293 4,200 3,273 Climbing FlightAware ADS-B
Fri 09:14:59 AM 39.7690 -75.3660 196° South 256 295 4,600 2,727 Climbing FlightAware ADS-B
Fri 09:15:03 AM 39.7640 -75.3660 180° South 261 300 4,700 2,276 Climbing FlightAware ADS-B
Fri 09:15:28 AM 39.7360 -75.3490 155° Southeast 289 333 5,700 2,364 Climbing FlightAware ADS-B
Fri 09:15:36 AM 39.7300 -75.3390 128° Southeast 293 337 6,000 2,400 Climbing FlightAware ADS-B
Fri 09:15:43 AM 39.7260 -75.3280 115° Southeast 294 338 6,300 2,727 Climbing FlightAware ADS-B
Fri 09:15:47 AM 39.7240 -75.3220 113° Southeast 295 339 6,500 3,000 Climbing FlightAware ADS-B
Fri 09:15:55 AM 39.7220 -75.3050 99° East 296 341 6,900 2,357 Climbing FlightAware ADS-B
Fri 09:16:15 AM 39.7240 -75.2800 84° East 295 339 7,600 3,300 Climbing FlightAware ADS-B
Fri 09:16:35 AM 39.7290 -75.2380 81° East 287 330 9,100 3,882 Climbing FlightAware ADS-B
Fri 09:16:49 AM 39.7330 -75.2140 78° East 292 336 9,800 2,118 Climbing FlightAware ADS-B
Fri 09:17:26 AM 39.7410 -75.1470 81° East 321 369 10,900 1,479 Climbing FlightAware ADS-B
Fri 09:18:02 AM 39.7500 -75.0740 81° East 359 413 11,600 716 Climbing FlightAware ADS-B
Fri 09:18:33 AM 39.7580 -75.0090 81° East 386 444 11,700 86 Climbing FlightAware ADS-B
Fri 09:19:12 AM 39.7700 -74.9110 81° East 405 466 11,700 640 Level FlightAware ADS-B
Fri 09:19:48 AM 39.7810 -74.8260 80° East 407 468 12,500 1,791 Climbing FlightAware ADS-B
Fri 09:20:19 AM 39.7900 -74.7500 81° East 420 483 13,700 2,507 Climbing FlightAware ADS-B
Fri 09:20:55 AM 39.8000 -74.6590 82° East 425 489 15,300 2,647 Climbing FlightAware ADS-B
Fri 09:21:27 AM 39.8070 -74.5760 84° East 434 499 16,700 2,435 Climbing FlightAware ADS-B
Fri 09:22:04 AM 39.8270 -74.4810 75° East 440 506 18,100 1,902 Climbing FlightAware ADS-B
Fri 09:22:49 AM 39.8560 -74.3790 70° East 457 526 19,300 1,852 Climbing FlightAware ADS-B
Fri 09:23:25 AM 39.8900 -74.2810 66° East 465 535 20,600 2,051 Climbing FlightAware ADS-B
Fri 09:24:08 AM 39.9290 -74.1690 66° East 473 544 22,000 1,890 Climbing FlightAware ADS-B
Fri 09:24:38 AM 39.9580 -74.0860 65° Northeast 480 552 22,900 1,701 Climbing FlightAware ADS-B
Fri 09:25:15 AM 39.9870 -74.0040 65° Northeast 485 558 23,900 1,808 Climbing FlightAware ADS-B
Fri 09:25:51 AM 40.0250 -73.8950 65° Northeast 491 565 25,100 1,881 Climbing FlightAware ADS-B
Fri 09:26:22 AM 40.0540 -73.8130 65° Northeast 499 574 26,000 1,739 Climbing FlightAware ADS-B
Fri 09:27:00 AM 40.0930 -73.7000 66° East 504 580 27,100 1,865 Climbing FlightAware ADS-B
Fri 09:27:36 AM 40.1270 -73.6020 66° East 502 578 28,300 1,853 Climbing FlightAware ADS-B
Fri 09:28:08 AM 40.1560 -73.5160 66° East 501 577 29,200 1,478 Climbing FlightAware ADS-B
Fri 09:28:45 AM 40.1920 -73.4120 66° East 506 582 30,000 1,440 Climbing FlightAware ADS-B
Fri 09:29:23 AM 40.2280 -73.3050 66° East 504 580 31,000 1,391 Climbing FlightAware ADS-B
Fri 09:29:54 AM 40.2540 -73.2300 66° East 505 581 31,600 1,235 Climbing FlightAware ADS-B
Fri 09:30:31 AM 40.2940 -73.1130 66° East 507 583 32,400 1,151 Climbing FlightAware ADS-B
Fri 09:31:07 AM 40.3270 -73.0130 67° East 508 585 33,000 529 Climbing FlightAware ADS-B
Fri 09:31:39 AM 40.3580 -72.9210 66° East 514 592 33,000  Level FlightAware ADS-B
Fri 09:32:17 AM 40.3950 -72.8120 66° East 515 593 33,000  Level FlightAware ADS-B
Fri 09:32:51 AM 40.4270 -72.7150 67° East 511 588 33,000  Level FlightAware ADS-B
Fri 09:33:24 AM 40.4560 -72.6300 66° East 508 585 33,000  Level FlightAware ADS-B
Fri 09:34:03 AM 40.4940 -72.5130 67° East 503 579 33,000  Level FlightAware ADS-B
Fri 09:34:34 AM 40.5230 -72.4270 66° East 501 577 33,000  Level FlightAware ADS-B
Fri 09:35:11 AM 40.5570 -72.3230 67° East 499 574 33,000  Level FlightAware ADS-B
Fri 09:35:47 AM 40.5900 -72.2230 66° East 498 573 33,000  Level FlightAware ADS-B
Fri 09:36:20 AM 40.6200 -72.1330 66° East 497 572 33,000  Level FlightAware ADS-B
Fri 09:36:54 AM 40.6510 -72.0370 67° East 497 572 33,000  Level FlightAware ADS-B
Fri 09:37:30 AM 40.6830 -71.9400 66° East 498 573 33,000  Level FlightAware ADS-B
Fri 09:38:12 AM 40.7190 -71.8270 67° East 499 574 33,000  Level FlightAware ADS-B
Fri 09:38:47 AM 40.7530 -71.7220 67° East 500 575 33,000  Level FlightAware ADS-B
Fri 09:39:23 AM 40.7850 -71.6220 67° East 502 578 33,000  Level FlightAware ADS-B
Fri 09:39:55 AM 40.8130 -71.5350 67° East 504 580 33,000  Level FlightAware ADS-B
Fri 09:40:33 AM 40.8550 -71.4290 62° Northeast 500 575 33,000  Level FlightAware ADS-B
Fri 09:41:07 AM 40.9050 -71.3490 50° Northeast 496 571 33,000  Level FlightAware ADS-B
Fri 09:41:41 AM 40.9580 -71.2750 47° Northeast 496 571 33,000  Level FlightAware ADS-B
Fri 09:42:16 AM 41.0120 -71.1980 47° Northeast 495 570 33,000  Level FlightAware ADS-B
Fri 09:42:51 AM 41.0680 -71.1190 47° Northeast 495 570 33,000  Level FlightAware ADS-B
Fri 09:43:21 AM 41.1130 -71.0550 47° Northeast 495 570 33,000  Level FlightAware ADS-B
Fri 09:44:01 AM 41.1780 -70.9640 46° Northeast 494 568 33,000  Level FlightAware ADS-B
Fri 09:44:42 AM 41.2410 -70.8740 47° Northeast 493 567 33,000  Level FlightAware ADS-B
Fri 09:45:36 AM 41.3120 -70.7730 47° Northeast 493 567 33,000  Level FlightAware ADS-B
Fri 09:46:11 AM 41.3750 -70.6840 47° Northeast 491 565 33,000  Level FlightAware ADS-B
Fri 09:46:41 AM 41.4180 -70.6220 47° Northeast 484 557 33,000  Level FlightAware ADS-B
Fri 09:47:20 AM 41.4690 -70.5490 47° Northeast 484 557 33,000  Level FlightAware ADS-B
Fri 09:47:56 AM 41.5390 -70.4490 47° Northeast 482 555 33,000  Level FlightAware ADS-B
Fri 09:48:47 AM 41.6080 -70.3480 48° Northeast 481 554 33,000  Level FlightAware ADS-B
Fri 09:49:21 AM 41.6670 -70.2620 47° Northeast 481 554 33,000  Level FlightAware ADS-B
Fri 09:49:58 AM 41.7240 -70.1780 48° Northeast 484 557 33,000  Level FlightAware ADS-B
Fri 09:50:36 AM 41.7840 -70.0900 48° Northeast 484 557 33,000  Level FlightAware ADS-B
Fri 09:51:11 AM 41.8340 -70.0160 48° Northeast 482 555 33,000  Level FlightAware ADS-B
Fri 09:51:53 AM 41.8960 -69.9250 48° Northeast 482 555 33,000  Level FlightAware ADS-B
Fri 09:52:36 AM 41.9610 -69.8280 48° Northeast 480 552 33,000  Level FlightAware ADS-B
Fri 09:53:11 AM 42.0130 -69.7500 48° Northeast 479 551 33,000  Level FlightAware ADS-B
Fri 09:53:41 AM 42.0550 -69.6870 48° Northeast 478 550 33,000  Level FlightAware ADS-B
Fri 09:54:26 AM 42.1240 -69.5830 48° Northeast 471 542 33,000  Level FlightAware ADS-B
Fri 09:55:02 AM 42.1750 -69.5070 48° Northeast 470 541 33,000  Level FlightAware ADS-B
Fri 09:55:41 AM 42.2340 -69.4190 48° Northeast 469 540 33,000  Level FlightAware ADS-B
Fri 09:56:21 AM 42.2870 -69.3390 48° Northeast 467 537 33,000  Level FlightAware ADS-B
Fri 09:56:54 AM 42.3380 -69.2600 49° Northeast 468 539 33,000  Level FlightAware ADS-B
Fri 09:57:28 AM 42.3890 -69.1830 48° Northeast 469 540 33,000  Level FlightAware ADS-B
Fri 09:58:05 AM 42.4410 -69.1040 48° Northeast 469 540 33,000  Level FlightAware ADS-B
Fri 09:58:45 AM 42.4930 -69.0240 49° Northeast 470 541 33,000  Level FlightAware ADS-B
Fri 09:59:11 AM 42.5390 -68.9540 48° Northeast 469 540 33,000  Level FlightAware ADS-B
Fri 10:00:06 AM 42.6140 -68.8370 49° Northeast 468 539 33,000  Level FlightAware ADS-B
Fri 10:00:37 AM 42.6570 -68.7730 48° Northeast 468 539 33,000  Level FlightAware ADS-B
Fri 10:01:12 AM 42.7030 -68.7010 49° Northeast 468 539 33,000  Level FlightAware ADS-B
Fri 10:01:48 AM 42.7470 -68.6330 49° Northeast 468 539 33,000  Level FlightAware ADS-B
Fri 10:02:28 AM 42.8170 -68.5260 48° Northeast 471 542 33,000  Level FlightAware ADS-B
Fri 10:03:07 AM 42.8650 -68.4530 48° Northeast 471 542 33,000  Level FlightAware ADS-B
Fri 10:03:38 AM 42.9190 -68.3650 50° Northeast 635 731 33,000  Level FlightAware ADS-B
Fri 10:07:39 AM 43.2620 -67.8220 49° Northeast 468 539 33,000  Level FlightAware ADS-B
Fri 10:08:15 AM 43.3120 -67.7440 49° Northeast 467 537 33,000  Level FlightAware ADS-B
Fri 10:08:49 AM 43.3620 -67.6640 49° Northeast 467 537 33,000  Level FlightAware ADS-B
Fri 10:09:20 AM 43.4050 -67.5940 50° Northeast 467 537 33,000  Level FlightAware ADS-B
Fri 10:09:54 AM 43.4540 -67.5160 49° Northeast 467 537 33,000  Level FlightAware ADS-B
Fri 10:10:30 AM 43.5040 -67.4350 50° Northeast 467 537 33,000  Level FlightAware ADS-B
Fri 10:11:05 AM 43.5530 -67.3550 50° Northeast 467 537 33,000  Level FlightAware ADS-B
Fri 10:11:41 AM 43.6020 -67.2750 50° Northeast 462 532 33,000  Level FlightAware ADS-B
Fri 10:12:15 AM 43.6520 -67.1950 49° Northeast 462 532 33,000  Level FlightAware ADS-B
Fri 10:12:51 AM 43.7000 -67.1160 50° Northeast 461 531 33,000  Level FlightAware ADS-B
Fri 10:13:25 AM 43.7480 -67.0370 50° Northeast 461 531 33,000  Level FlightAware ADS-B
Fri 10:14:00 AM 43.7970 -66.9570 50° Northeast 460 529 33,000  Level FlightAware ADS-B
Fri 10:14:35 AM 43.8450 -66.8780 50° Northeast 459 528 33,000  Level FlightAware ADS-B
Fri 10:15:11 AM 43.8940 -66.7980 50° Northeast 458 527 33,000  Level FlightAware ADS-B
Fri 10:15:45 AM 43.9410 -66.7200 50° Northeast 457 526 33,000  Level FlightAware ADS-B
Fri 10:16:21 AM 43.9890 -66.6390 51° Northeast 456 525 33,000  Level FlightAware ADS-B
Fri 10:16:55 AM 44.0370 -66.5600 50° Northeast 456 525 33,000  Level FlightAware ADS-B
Fri 10:17:30 AM 44.0850 -66.4790 50° Northeast 460 529 33,000  Level FlightAware ADS-B
Fri 10:18:05 AM 44.1320 -66.4010 50° Northeast 456 525 33,000  Level FlightAware ADS-B
Fri 10:18:40 AM 44.1810 -66.3180 51° Northeast 458 527 33,000  Level FlightAware ADS-B
Fri 10:19:16 AM 44.2290 -66.2380 50° Northeast 463 533 33,000  Level FlightAware ADS-B
Fri 10:19:55 AM 44.2830 -66.1470 50° Northeast 463 533 33,000  Level FlightAware ADS-B
Fri 10:20:26 AM 44.3240 -66.0770 51° Northeast 459 528 33,000  Level FlightAware ADS-B
Fri 10:21:05 AM 44.3770 -65.9880 50° Northeast 464 534 33,000  Level FlightAware ADS-B
Fri 10:21:36 AM 44.4180 -65.9170 51° Northeast 464 534 33,000  Level FlightAware ADS-B
Fri 10:22:15 AM 44.4720 -65.8250 51° Northeast 464 534 33,000  Level FlightAware ADS-B
Fri 10:22:46 AM 44.5120 -65.7560 51° Northeast 464 534 33,000  Level FlightAware ADS-B
Fri 10:23:25 AM 44.5650 -65.6660 50° Northeast 464 534 33,000  Level FlightAware ADS-B
Fri 10:24:03 AM 44.6210 -65.5700 51° Northeast 464 534 33,000  Level FlightAware ADS-B
Fri 10:24:43 AM 44.6740 -65.4780 51° Northeast 464 534 33,000  Level FlightAware ADS-B
Fri 10:25:15 AM 44.7160 -65.4050 51° Northeast 465 535 33,000  Level FlightAware ADS-B
Fri 10:25:51 AM 44.7660 -65.3180 51° Northeast 466 536 33,000  Level FlightAware ADS-B
Fri 10:26:27 AM 44.8140 -65.2340 51° Northeast 468 539 33,000  Level FlightAware ADS-B
Fri 10:27:03 AM 44.8640 -65.1470 51° Northeast 468 539 33,000  Level FlightAware ADS-B
Fri 10:27:35 AM 44.9060 -65.0730 51° Northeast 468 539 33,000  Level FlightAware ADS-B
Fri 10:28:11 AM 44.9530 -64.9910 51° Northeast 468 539 33,000  Level FlightAware ADS-B
Fri 10:28:47 AM 45.0040 -64.9000 52° Northeast 469 540 33,000  Level FlightAware ADS-B
Fri 10:29:21 AM 45.0500 -64.8190 51° Northeast 469 540 33,000  Level FlightAware ADS-B
Fri 10:29:56 AM 45.0960 -64.7380 51° Northeast 470 541 33,000  Level FlightAware ADS-B
Fri 10:30:31 AM 45.1450 -64.6510 51° Northeast 471 542 33,000  Level FlightAware ADS-B
Fri 10:31:07 AM 45.1930 -64.5650 52° Northeast 471 542 33,000  Level FlightAware ADS-B
Fri 10:31:39 AM 45.2360 -64.4870 52° Northeast 472 543 33,000  Level FlightAware ADS-B
Fri 10:32:15 AM 45.2860 -64.3980 51° Northeast 473 544 33,000  Level FlightAware ADS-B
Fri 10:32:51 AM 45.3340 -64.3110 52° Northeast 475 547 33,000  Level FlightAware ADS-B
Fri 10:33:23 AM 45.3780 -64.2330 51° Northeast 476 548 33,000  Level FlightAware ADS-B
Fri 10:34:05 AM 45.4290 -64.1410 52° Northeast 476 548 33,000  Level FlightAware ADS-B
Fri 10:34:41 AM 45.4710 -64.0670 51° Northeast 476 548 33,000  Level FlightAware ADS-B
Fri 10:35:17 AM 45.5140 -63.9920 51° Northeast 476 548 33,000  Level FlightAware ADS-B
Fri 10:35:54 AM 45.5570 -63.9150 51° Northeast 476 548 33,000  Level FlightAware ADS-B
Fri 10:36:30 AM 45.6000 -63.8400 51° Northeast 476 548 33,000  Level FlightAware ADS-B
Fri 10:37:06 AM 45.6420 -63.7650 51° Northeast 476 548 33,000  Level FlightAware ADS-B
Fri 10:37:43 AM 45.6860 -63.6880 51° Northeast 476 548 33,000  Level FlightAware ADS-B
Fri 10:38:17 AM 45.7260 -63.6180 51° Northeast 476 548 33,000  Level FlightAware ADS-B
Fri 10:38:53 AM 45.7680 -63.5420 52° Northeast 476 548 33,000  Level FlightAware ADS-B
Fri 10:39:29 AM 45.8110 -63.4670 51° Northeast 476 548 33,000  Level FlightAware ADS-B
Fri 10:40:06 AM 45.8540 -63.3900 51° Northeast 476 548 33,000  Level FlightAware ADS-B
Fri 10:40:44 AM 45.8990 -63.3110 51° Northeast 476 548 33,000  Level FlightAware ADS-B
Fri 10:41:18 AM 45.9390 -63.2400 51° Northeast 476 548 33,000  Level FlightAware ADS-B
Fri 10:42:41 AM 46.1350 -62.8290 55° Northeast 486 559 33,000  Level FlightAware ADS-B
Fri 10:43:11 AM 46.1760 -62.7490 53° Northeast 487 560 33,000  Level FlightAware ADS-B
Fri 10:43:51 AM 46.2300 -62.6480 52° Northeast 489 563 33,000  Level FlightAware ADS-B
Fri 10:44:23 AM 46.2740 -62.5620 53° Northeast 488 562 33,000  Level FlightAware ADS-B
Fri 10:44:59 AM 46.3240 -62.4670 53° Northeast 491 565 33,000  Level FlightAware ADS-B
Fri 10:45:35 AM 46.3720 -62.3730 53° Northeast 493 567 33,000  Level FlightAware ADS-B
Fri 10:46:08 AM 46.4170 -62.2870 53° Northeast 495 570 33,000  Level FlightAware ADS-B
Fri 10:46:43 AM 46.4650 -62.1940 53° Northeast 496 571 33,000  Level FlightAware ADS-B
Fri 10:47:17 AM 46.5110 -62.1030 54° Northeast 496 571 33,000  Level FlightAware ADS-B
Fri 10:47:53 AM 46.5610 -62.0070 53° Northeast 498 573 33,000  Level FlightAware ADS-B
Fri 10:48:29 AM 46.6110 -61.9090 53° Northeast 500 575 33,000  Level FlightAware ADS-B
Fri 10:49:03 AM 46.6580 -61.8160 54° Northeast 503 579 33,000  Level FlightAware ADS-B
Fri 10:49:37 AM 46.7040 -61.7250 54° Northeast 503 579 33,000  Level FlightAware ADS-B
Fri 10:50:11 AM 46.7510 -61.6320 54° Northeast 505 581 33,000  Level FlightAware ADS-B
Fri 10:50:49 AM 46.8040 -61.5270 54° Northeast 509 586 33,000  Level FlightAware ADS-B
Fri 10:51:24 AM 46.8510 -61.4330 54° Northeast 510 587 33,000  Level FlightAware ADS-B
Fri 10:52:01 AM 46.9040 -61.3270 54° Northeast 512 589 33,000  Level FlightAware ADS-B
Fri 10:52:35 AM 46.9500 -61.2330 54° Northeast 514 592 33,000  Level FlightAware ADS-B
Fri 10:53:09 AM 46.9980 -61.1370 54° Northeast 514 592 33,000  Level FlightAware ADS-B
Fri 10:53:43 AM 47.0450 -61.0410 54° Northeast 514 592 33,000  Level FlightAware ADS-B
Fri 10:54:19 AM 47.0960 -60.9380 54° Northeast 513 590 33,000  Level FlightAware ADS-B
Fri 10:54:55 AM 47.1460 -60.8360 54° Northeast 512 589 33,000  Level FlightAware ADS-B
Fri 10:55:31 AM 47.1960 -60.7330 54° Northeast 513 590 33,000  Level FlightAware ADS-B
Fri 10:56:08 AM 47.2400 -60.6440 54° Northeast 513 590 33,000  Level FlightAware ADS-B
Fri 10:56:58 AM 47.3090 -60.5020 54° Northeast 513 590 33,000  Level FlightAware ADS-B
Fri 10:57:34 AM 47.3520 -60.4150 54° Northeast 513 590 33,000  Level FlightAware ADS-B
Fri 10:58:07 AM 47.4080 -60.2950 55° Northeast 512 589 33,000  Level FlightAware ADS-B
Fri 10:58:53 AM 47.4700 -60.1650 55° Northeast 513 590 33,000  Level FlightAware ADS-B
Fri 10:59:31 AM 47.5150 -60.0730 54° Northeast 513 590 33,000  Level FlightAware ADS-B
Fri 11:00:07 AM 47.5580 -59.9860 54° Northeast 513 590 33,000  Level FlightAware ADS-B
Fri 11:00:43 AM 47.6010 -59.8990 54° Northeast 513 590 33,000  Level FlightAware ADS-B
Fri 11:01:17 AM 47.6410 -59.8170 54° Northeast 513 590 33,000  Level FlightAware ADS-B
Fri 11:01:54 AM 47.6850 -59.7270 54° Northeast 513 590 33,000  Level FlightAware ADS-B
Fri 11:02:31 AM 47.7290 -59.6370 54° Northeast 513 590 33,000  Level FlightAware ADS-B
Fri 11:03:06 AM 47.7700 -59.5520 54° Northeast 513 590 33,000  Level FlightAware ADS-B
Fri 11:03:37 AM 47.8600 -59.3380 58° Northeast 522 601 33,000  Level FlightAware ADS-B
Fri 11:04:22 AM 47.9200 -59.2090 55° Northeast 524 603 33,000  Level FlightAware ADS-B
Fri 11:04:57 AM 47.9700 -59.0990 56° Northeast 527 606 33,000  Level FlightAware ADS-B
Fri 11:05:27 AM 48.0110 -59.0090 56° Northeast 528 608 33,000  Level FlightAware ADS-B
Fri 11:06:02 AM 48.0590 -58.9040 56° Northeast 530 610 33,000  Level FlightAware ADS-B
Fri 11:06:37 AM 48.1070 -58.7990 56° Northeast 532 612 33,000  Level FlightAware ADS-B
Fri 11:07:12 AM 48.1480 -58.6860 61° Northeast 537 618 33,000  Level FlightAware ADS-B
Fri 11:07:57 AM 48.1890 -58.5300 68° East 539 620 33,000  Level FlightAware ADS-B
Fri 11:08:32 AM 48.2200 -58.4100 69° East 540 621 33,000  Level FlightAware ADS-B
Fri 11:09:07 AM 48.2510 -58.2840 70° East 541 623 33,000  Level FlightAware ADS-B
Fri 11:09:37 AM 48.2770 -58.1800 69° East 542 624 33,000  Level FlightAware ADS-B
Fri 11:10:17 AM 48.3110 -58.0370 70° East 543 625 33,000  Level FlightAware ADS-B
Fri 11:10:52 AM 48.3410 -57.9130 70° East 543 625 33,000  Level FlightAware ADS-B
Fri 11:11:25 AM 48.3640 -57.8180 70° East 542 624 33,000  Level FlightAware ADS-B
Fri 11:12:02 AM 48.4010 -57.6640 70° East 543 625 33,000  Level FlightAware ADS-B
Fri 11:12:37 AM 48.4300 -57.5400 71° East 544 626 33,000  Level FlightAware ADS-B
Fri 11:13:12 AM 48.4590 -57.4150 71° East 544 626 33,000  Level FlightAware ADS-B
Fri 11:13:47 AM 48.4870 -57.2950 71° East 546 628 33,000  Level FlightAware ADS-B
Fri 11:14:22 AM 48.5170 -57.1660 71° East 548 631 33,000  Level FlightAware ADS-B
Fri 11:14:57 AM 48.5450 -57.0440 71° East 549 632 33,000  Level FlightAware ADS-B
Fri 11:15:37 AM 48.5790 -56.8960 71° East 553 636 33,000  Level FlightAware ADS-B
Fri 11:16:13 AM 48.6090 -56.7660 71° East 557 641 33,000  Level FlightAware ADS-B
Fri 11:16:47 AM 48.6390 -56.6370 71° East 561 646 33,000  Level FlightAware ADS-B
Fri 11:17:27 AM 48.6720 -56.4880 71° East 566 651 33,000  Level FlightAware ADS-B
Fri 11:17:57 AM 48.6970 -56.3770 71° East 570 656 33,000  Level FlightAware ADS-B
Fri 11:18:32 AM 48.7270 -56.2440 71° East 571 657 33,000  Level FlightAware ADS-B
Fri 11:19:07 AM 48.7560 -56.1110 72° East 571 657 33,000  Level FlightAware ADS-B
Fri 11:19:47 AM 48.7910 -55.9580 71° East 572 658 33,000  Level FlightAware ADS-B
Fri 11:20:17 AM 48.8170 -55.8470 70° East 571 657 33,000  Level FlightAware ADS-B
Fri 11:20:52 AM 48.8480 -55.7140 70° East 570 656 33,000  Level FlightAware ADS-B
Fri 11:21:27 AM 48.8790 -55.5810 70° East 572 658 33,000  Level FlightAware ADS-B
Fri 11:22:02 AM 48.9100 -55.4490 70° East 574 661 33,000  Level FlightAware ADS-B
Fri 11:22:37 AM 48.9400 -55.3150 71° East 577 664 33,000  Level FlightAware ADS-B
Fri 11:23:12 AM 48.9700 -55.1810 71° East 581 669 33,000  Level FlightAware ADS-B
Fri 11:23:47 AM 49.0010 -55.0450 71° East 585 673 33,000  Level FlightAware ADS-B
Fri 11:24:22 AM 49.0320 -54.9080 71° East 590 679 33,000 429 Level FlightAware ADS-B
Fri 11:24:57 AM 49.0620 -54.7710 71° East 595 685 33,500 943 Climbing FlightAware ADS-B
Fri 11:25:32 AM 49.0920 -54.6330 72° East 595 685 34,100 1,286 Climbing FlightAware ADS-B
Fri 11:26:07 AM 49.1230 -54.4930 71° East 585 673 35,000 720 Climbing FlightAware ADS-B
Fri 11:26:47 AM 49.1550 -54.3460 72° East 582 670 35,000  Level FlightAware ADS-B
Fri 11:27:17 AM 49.1810 -54.2240 72° East 580 667 35,000  Level FlightAware ADS-B
Fri 11:27:53 AM 49.2110 -54.0860 72° East 578 665 35,000  Level FlightAware ADS-B
Fri 11:28:27 AM 49.2400 -53.9490 72° East 580 667 35,000  Level FlightAware ADS-B
Fri 11:29:07 AM 49.2730 -53.7930 72° East 580 667 35,000  Level FlightAware ADS-B
Fri 11:29:37 AM 49.2980 -53.6770 72° East 581 669 35,000  Level FlightAware ADS-B
Fri 11:30:12 AM 49.3260 -53.5400 73° East 582 670 35,000  Level FlightAware ADS-B
Fri 11:30:47 AM 49.3550 -53.4020 72° East 583 671 35,000  Level FlightAware ADS-B
Fri 11:31:22 AM 49.3830 -53.2640 73° East 579 666 35,000  Level FlightAware ADS-B
Fri 11:31:57 AM 49.4110 -53.1290 72° East 576 663 35,000  Level FlightAware ADS-B
Fri 11:32:37 AM 49.4420 -52.9770 73° East 570 656 35,000  Level FlightAware ADS-B
Fri 11:33:07 AM 49.4660 -52.8570 73° East 569 655 35,000  Level FlightAware ADS-B
Fri 11:33:42 AM 49.4930 -52.7230 73° East 568 654 35,000  Level FlightAware ADS-B
Fri 11:34:20 AM 49.5200 -52.5900 73° East 567 652 35,000  Level FlightAware ADS-B
Fri 11:34:52 AM 49.5470 -52.4540 73° East 566 651 35,000  Level FlightAware ADS-B
Fri 11:35:27 AM 49.5720 -52.3240 73° East 565 650 35,000  Level FlightAware ADS-B
Fri 11:36:02 AM 49.5990 -52.1850 73° East 563 648 35,000  Level FlightAware ADS-B
Fri 11:36:37 AM 49.6250 -52.0520 73° East 563 648 35,000  Level FlightAware ADS-B
Fri 11:37:17 AM 49.6550 -51.8960 73° East 562 647 35,000  Level FlightAware ADS-B
Fri 11:37:47 AM 49.6750 -51.7890 74° East 560 644 35,000  Level FlightAware ADS-B
Fri 11:38:22 AM 49.7020 -51.6480 73° East 559 643 35,000  Level FlightAware ADS-B
Fri 11:38:57 AM 49.7270 -51.5170 74° East 558 642 35,000  Level FlightAware ADS-B
Fri 11:39:37 AM 49.7530 -51.3760 74° East 553 636 35,000  Level FlightAware ADS-B
Fri 11:40:07 AM 49.7770 -51.2490 74° East 545 627 35,000  Level FlightAware ADS-B
Fri 11:40:37 AM 49.7980 -51.1370 74° East 539 620 35,000  Level FlightAware ADS-B
Fri 11:41:12 AM 49.8180 -51.0250 74° East 535 616 35,000  Level FlightAware ADS-B
Fri 11:41:52 AM 49.8470 -50.8660 74° East 535 616 35,000  Level FlightAware ADS-B
Fri 11:42:29 AM 49.8680 -50.7480 75° East 535 616 35,000  Level FlightAware ADS-B
Fri 11:43:05 AM 49.8910 -50.6210 74° East 537 618 35,000  Level FlightAware ADS-B
Fri 11:43:41 AM 49.9120 -50.5070 74° East 537 618 35,000  Level FlightAware ADS-B
Fri 11:44:21 AM 49.9360 -50.3810 73° East 537 618 35,000  Level FlightAware ADS-B
Fri 11:44:58 AM 49.9570 -50.2640 74° East 537 618 35,000  Level FlightAware ADS-B
Fri 11:45:32 AM 49.9770 -50.1570 74° East 537 618 35,000  Level FlightAware ADS-B
Fri 11:46:06 AM 49.9970 -50.0500 74° East 537 618 35,000  Level FlightAware ADS-B
Fri 11:46:42 AM 50.0180 -49.9360 74° East 537 618 35,000  Level FlightAware ADS-B
Fri 11:47:20 AM 50.0400 -49.8160 74° East 537 618 35,000  Level FlightAware ADS-B
Fri 11:48:06 AM 50.0660 -49.6700 74° East 537 618 35,000  Level FlightAware ADS-B
Fri 11:48:42 AM 50.0870 -49.5570 74° East 537 618 35,000  Level FlightAware ADS-B
Fri 11:49:18 AM 50.1080 -49.4430 74° East 537 618 35,000  Level FlightAware ADS-B
Fri 11:49:54 AM 50.1290 -49.3290 74° East 537 618 35,000  Level FlightAware ADS-B
Fri 11:50:30 AM 50.1500 -49.2150 74° East 537 618 35,000  Level FlightAware ADS-B
Fri 11:51:07 AM 50.1720 -49.0970 74° East 537 618 35,000  Level FlightAware ADS-B
Fri 11:51:45 AM 50.1940 -48.9770 74° East 537 618 35,000  Level FlightAware ADS-B
Fri 11:52:22 AM 50.2150 -48.8590 74° East 537 618 35,000  Level FlightAware ADS-B
Fri 11:56:00 AM 50.3889 -48.1475 69° East  Level FlightAware Approximate
Fri 11:57:00 AM 50.4360 -47.9508 69° East  Level FlightAware Approximate
Fri 11:58:00 AM 50.4827 -47.7537 69° East  Level FlightAware Approximate
Fri 11:59:00 AM 50.5291 -47.5562 70° East  Level FlightAware Approximate
Fri 11:59:00 AM 50.0000 -50.0000 69° East 539 620 35,000  Level ETMS Enhanced Traffic Management System
Fri 11:59:55 AM 50.0000 -50.0000 69° East 539 620 35,000  Level ETMS Enhanced Traffic Management System
Fri 12:00:00 PM 50.5752 -47.3583 70° East  Level FlightAware Approximate
Fri 12:01:00 PM 50.6209 -47.1600 70° East  Level FlightAware Approximate
Fri 12:02:00 PM 50.6664 -46.9614 70° East  Level FlightAware Approximate
Fri 12:03:00 PM 50.7114 -46.7623 70° East  Level FlightAware Approximate
Fri 12:04:00 PM 50.7562 -46.5629 70° East  Level FlightAware Approximate
Fri 12:05:00 PM 51.0147 -45.5621 72° East 539 620 35,000  Level FlightAware Transoceanic
Fri 12:06:00 PM 51.0609 -45.3353 72° East 539 620 35,000  Level FlightAware Transoceanic
Fri 12:07:00 PM 51.1067 -45.1081 72° East 539 620 35,000  Level FlightAware Transoceanic
Fri 12:08:00 PM 51.1521 -44.8803 72° East 539 620 35,000  Level FlightAware Transoceanic
Fri 12:09:00 PM 51.1970 -44.6522 73° East 539 620 35,000  Level FlightAware Transoceanic
Fri 12:10:00 PM 51.2415 -44.4236 73° East 539 620 35,000  Level FlightAware Transoceanic
Fri 12:11:00 PM 51.2855 -44.1945 73° East 539 620 35,000  Level FlightAware Transoceanic
Fri 12:12:00 PM 51.3291 -43.9650 73° East 539 620 35,000  Level FlightAware Transoceanic
Fri 12:13:00 PM 51.3722 -43.7351 73° East 539 620 35,000  Level FlightAware Transoceanic
Fri 12:14:00 PM 51.4149 -43.5048 74° East 539 620 35,000  Level FlightAware Transoceanic
Fri 12:15:00 PM 51.4571 -43.2740 74° East 539 620 35,000  Level FlightAware Transoceanic
Fri 12:16:00 PM 51.4989 -43.0428 74° East 539 620 35,000  Level FlightAware Transoceanic
Fri 12:17:00 PM 51.5402 -42.8112 74° East 539 620 35,000  Level FlightAware Transoceanic
Fri 12:18:00 PM 51.5811 -42.5791 74° East 539 620 35,000  Level FlightAware Transoceanic
Fri 12:19:00 PM 51.6215 -42.3467 74° East 539 620 35,000  Level FlightAware Transoceanic
Fri 12:20:00 PM 51.6614 -42.1138 75° East 539 620 35,000  Level FlightAware Transoceanic
Fri 12:21:00 PM 51.7009 -41.8805 75° East 539 620 35,000  Level FlightAware Transoceanic
Fri 12:22:00 PM 51.7399 -41.6468 75° East 539 620 35,000  Level FlightAware Transoceanic
Fri 12:23:00 PM 51.7785 -41.4127 75° East 539 620 35,000  Level FlightAware Transoceanic
Fri 12:24:00 PM 51.8166 -41.1783 75° East 539 620 35,000  Level FlightAware Transoceanic
Fri 12:25:00 PM 51.8542 -40.9434 76° East 539 620 35,000  Level FlightAware Transoceanic
Fri 12:26:00 PM 51.8914 -40.7081 76° East 539 620 35,000  Level FlightAware Transoceanic
Fri 12:27:00 PM 51.9281 -40.4725 76° East 539 620 35,000  Level FlightAware Transoceanic
Fri 12:28:00 PM 51.9643 -40.2364 76° East 539 620 35,000  Level FlightAware Transoceanic
Fri 12:29:00 PM 51.9962 -40.0253 76° East  Level FlightAware Approximate
Fri 12:30:00 PM 52.0278 -39.8139 76° East  Level FlightAware Approximate
Fri 12:31:00 PM 52.0061 -39.8348 87° East  Level FlightAware Approximate
Fri 12:32:00 PM 52.0136 -39.6176 87° East  Level FlightAware Approximate
Fri 12:33:00 PM 52.0208 -39.4003 87° East  Level FlightAware Approximate
Fri 12:34:00 PM 52.0276 -39.1830 87° East  Level FlightAware Approximate
Fri 12:35:00 PM 52.0340 -38.9656 87° East  Level FlightAware Approximate
Fri 12:36:00 PM 52.0400 -38.7481 87° East  Level FlightAware Approximate
Fri 12:37:00 PM 52.0456 -38.5306 88° East  Level FlightAware Approximate
Fri 12:38:00 PM 52.0508 -38.3130 88° East  Level FlightAware Approximate
Fri 12:39:00 PM 52.0556 -38.0953 88° East  Level FlightAware Approximate
Fri 12:40:00 PM 52.0600 -37.8777 88° East  Level FlightAware Approximate
Fri 12:41:00 PM 52.0640 -37.6600 88° East  Level FlightAware Approximate
Fri 12:42:00 PM 52.0680 -37.4422 88° East  Level FlightAware Approximate
Fri 12:43:00 PM 52.0726 -37.2245 88° East  Level FlightAware Approximate
Fri 12:44:00 PM 52.0769 -37.0067 88° East  Level FlightAware Approximate
Fri 12:45:00 PM 52.0808 -36.7889 88° East  Level FlightAware Approximate
Fri 12:46:00 PM 52.0843 -36.5711 88° East  Level FlightAware Approximate
Fri 12:47:00 PM 52.0873 -36.3532 89° East  Level FlightAware Approximate
Fri 12:48:00 PM 52.0900 -36.1353 89° East  Level FlightAware Approximate
Fri 12:49:00 PM 52.0923 -35.9174 89° East  Level FlightAware Approximate
Fri 12:50:00 PM 52.0941 -35.6994 89° East  Level FlightAware Approximate
Fri 12:51:00 PM 52.0956 -35.4814 89° East  Level FlightAware Approximate
Fri 12:52:00 PM 52.0966 -35.2635 89° East  Level FlightAware Approximate
Fri 12:53:00 PM 52.0973 -35.0455 90° East  Level FlightAware Approximate
Fri 12:54:00 PM 52.0975 -34.8275 90° East  Level FlightAware Approximate
Fri 12:55:00 PM 52.0974 -34.6095 90° East  Level FlightAware Approximate
Fri 12:56:00 PM 52.0968 -34.3915 90° East  Level FlightAware Approximate
Fri 12:57:00 PM 52.0959 -34.1736 90° East  Level FlightAware Approximate
Fri 12:58:00 PM 52.0945 -33.9556 90° East  Level FlightAware Approximate
Fri 12:59:00 PM 52.0928 -33.7376 91° East  Level FlightAware Approximate
Fri 01:00:00 PM 52.0906 -33.5197 91° East  Level FlightAware Approximate
Fri 01:01:00 PM 52.0881 -33.3018 91° East  Level FlightAware Approximate
Fri 01:02:00 PM 52.0851 -33.0839 91° East  Level FlightAware Approximate
Fri 01:03:00 PM 52.0817 -32.8661 91° East  Level FlightAware Approximate
Fri 01:04:00 PM 52.0780 -32.6483 92° East  Level FlightAware Approximate
Fri 01:05:00 PM 52.0738 -32.4305 92° East  Level FlightAware Approximate
Fri 01:06:00 PM 52.0692 -32.2127 92° East  Level FlightAware Approximate
Fri 01:07:00 PM 52.0643 -31.9951 92° East  Level FlightAware Approximate
Fri 01:08:00 PM 52.0589 -31.7774 92° East  Level FlightAware Approximate
Fri 01:09:00 PM 52.0531 -31.5598 92° East  Level FlightAware Approximate
Fri 01:10:00 PM 52.0470 -31.3423 93° East  Level FlightAware Approximate
Fri 01:11:00 PM 52.0404 -31.1248 93° East  Level FlightAware Approximate
Fri 01:12:00 PM 52.0334 -30.9074 93° East  Level FlightAware Approximate
Fri 01:13:00 PM 52.0261 -30.6901 93° East  Level FlightAware Approximate
Fri 01:14:00 PM 52.0183 -30.4729 93° East  Level FlightAware Approximate
Fri 01:15:00 PM 52.0101 -30.2557 93° East  Level FlightAware Approximate
Fri 01:16:00 PM 52.0016 -30.0386 94° East  Level FlightAware Approximate
Fri 01:17:00 PM 52.0252 -29.8258 77° East  Level FlightAware Approximate
Fri 01:18:00 PM 52.0554 -29.6138 77° East  Level FlightAware Approximate
Fri 01:19:00 PM 52.0853 -29.4014 77° East  Level FlightAware Approximate
Fri 01:20:00 PM 52.1148 -29.1887 77° East  Level FlightAware Approximate
Fri 01:21:00 PM 52.1439 -28.9758 77° East  Level FlightAware Approximate
Fri 01:22:00 PM 52.1726 -28.7626 78° East  Level FlightAware Approximate
Fri 01:23:00 PM 52.2009 -28.5491 78° East  Level FlightAware Approximate
Fri 01:24:00 PM 52.2289 -28.3354 78° East  Level FlightAware Approximate
Fri 01:25:00 PM 52.2564 -28.1213 78° East  Level FlightAware Approximate
Fri 01:26:00 PM 52.2836 -27.9071 78° East  Level FlightAware Approximate
Fri 01:27:00 PM 52.3104 -27.6925 78° East  Level FlightAware Approximate
Fri 01:28:00 PM 52.3368 -27.4777 79° East  Level FlightAware Approximate
Fri 01:29:00 PM 52.3628 -27.2627 79° East  Level FlightAware Approximate
Fri 01:30:00 PM 52.3884 -27.0474 79° East  Level FlightAware Approximate
Fri 01:31:00 PM 52.4136 -26.8318 79° East  Level FlightAware Approximate
Fri 01:32:00 PM 52.4385 -26.6160 79° East  Level FlightAware Approximate
Fri 01:33:00 PM 52.4629 -26.4000 79° East  Level FlightAware Approximate
Fri 01:34:00 PM 52.4869 -26.1837 80° East  Level FlightAware Approximate
Fri 01:35:00 PM 52.5106 -25.9672 80° East  Level FlightAware Approximate
Fri 01:36:00 PM 52.5339 -25.7504 80° East  Level FlightAware Approximate
Fri 01:37:00 PM 52.5567 -25.5334 80° East  Level FlightAware Approximate
Fri 01:38:00 PM 52.5792 -25.3162 80° East  Level FlightAware Approximate
Fri 01:39:00 PM 52.6012 -25.0988 80° East  Level FlightAware Approximate
Fri 01:40:00 PM 52.6229 -24.8812 81° East  Level FlightAware Approximate
Fri 01:41:00 PM 52.6442 -24.6633 81° East  Level FlightAware Approximate
Fri 01:42:00 PM 52.6650 -24.4453 81° East  Level FlightAware Approximate
Fri 01:43:00 PM 52.6855 -24.2270 81° East  Level FlightAware Approximate
Fri 01:44:00 PM 52.7056 -24.0085 81° East  Level FlightAware Approximate
Fri 01:45:00 PM 52.7252 -23.7899 81° East  Level FlightAware Approximate
Fri 01:46:00 PM 52.7445 -23.5710 82° East  Level FlightAware Approximate
Fri 01:47:00 PM 52.7634 -23.3520 82° East  Level FlightAware Approximate
Fri 01:48:00 PM 52.7818 -23.1327 82° East  Level FlightAware Approximate
Fri 01:49:00 PM 52.7999 -22.9133 82° East  Level FlightAware Approximate
Fri 01:50:00 PM 52.8175 -22.6937 82° East  Level FlightAware Approximate
Fri 01:51:00 PM 52.8347 -22.4739 83° East  Level FlightAware Approximate
Fri 01:52:00 PM 52.8516 -22.2540 83° East  Level FlightAware Approximate
Fri 01:53:00 PM 52.8680 -22.0338 83° East  Level FlightAware Approximate
Fri 01:54:00 PM 52.8840 -21.8135 83° East  Level FlightAware Approximate
Fri 01:55:00 PM 52.8996 -21.5931 83° East  Level FlightAware Approximate
Fri 01:56:00 PM 52.9148 -21.3725 83° East  Level FlightAware Approximate
Fri 01:57:00 PM 52.9296 -21.1517 84° East  Level FlightAware Approximate
Fri 01:58:00 PM 52.9440 -20.9308 84° East  Level FlightAware Approximate
Fri 01:59:00 PM 52.9580 -20.7098 84° East  Level FlightAware Approximate
Fri 02:00:00 PM 52.9715 -20.4886 84° East  Level FlightAware Approximate
Fri 02:01:00 PM 52.9847 -20.2672 84° East  Level FlightAware Approximate
Fri 02:02:00 PM 52.9974 -20.0458 84° East  Level FlightAware Approximate
Fri 02:03:00 PM 52.9995 -19.8235 90° East  Level FlightAware Approximate
Fri 02:04:00 PM 52.9984 -19.6010 90° East  Level FlightAware Approximate
Fri 02:05:00 PM 52.9969 -19.3785 91° East  Level FlightAware Approximate
Fri 02:06:00 PM 52.9951 -19.1560 91° East  Level FlightAware Approximate
Fri 02:07:00 PM 52.9928 -18.9336 91° East  Level FlightAware Approximate
Fri 02:08:00 PM 52.9901 -18.7111 91° East  Level FlightAware Approximate
Fri 02:09:00 PM 52.9869 -18.4887 91° East  Level FlightAware Approximate
Fri 02:10:00 PM 52.9834 -18.2664 91° East  Level FlightAware Approximate
Fri 02:11:00 PM 52.9794 -18.0441 92° East  Level FlightAware Approximate
Fri 02:12:00 PM 52.9751 -17.8218 92° East  Level FlightAware Approximate
Fri 02:13:00 PM 52.9703 -17.5996 92° East  Level FlightAware Approximate
Fri 02:14:00 PM 52.9651 -17.3774 92° East  Level FlightAware Approximate
Fri 02:15:00 PM 52.9594 -17.1552 92° East  Level FlightAware Approximate
Fri 02:16:00 PM 52.9534 -16.9332 92° East  Level FlightAware Approximate
Fri 02:17:00 PM 52.9470 -16.7112 93° East  Level FlightAware Approximate
Fri 02:18:00 PM 52.9401 -16.4892 93° East  Level FlightAware Approximate
Fri 02:19:00 PM 52.9328 -16.2674 93° East  Level FlightAware Approximate
Fri 02:20:00 PM 52.9252 -16.0456 93° East  Level FlightAware Approximate
Fri 02:21:00 PM 52.9171 -15.8239 93° East  Level FlightAware Approximate
Fri 02:22:00 PM 52.9086 -15.6023 94° East  Level FlightAware Approximate
Fri 02:23:00 PM 52.8996 -15.3807 94° East  Level FlightAware Approximate
Fri 02:24:00 PM 52.8903 -15.1593 94° East  Level FlightAware Approximate
Fri 02:25:00 PM 52.8808 -14.9379 94° East  Level FlightAware Approximate
Fri 02:26:00 PM 52.8715 -14.7166 94° East  Level FlightAware Approximate
Fri 02:27:00 PM 52.8617 -14.4953 94° East  Level FlightAware Approximate
Fri 02:28:00 PM 52.8516 -14.2742 94° East  Level FlightAware Approximate
Fri 02:28:35 PM 53.8820 -14.2420 94° East 507 583 35,000  Level FlightAware ADS-B
Fri 02:29:00 PM 52.8410 -14.0531 94° East  Level FlightAware Approximate
Fri 02:29:14 PM 53.8580 -14.0890 105° East 509 586 35,000  Level FlightAware ADS-B
Fri 02:29:45 PM 53.8400 -13.9750 105° East 511 588 35,000  Level FlightAware ADS-B
Fri 02:30:44 PM 53.8020 -13.7410 105° East 510 587 35,000  Level FlightAware ADS-B
Fri 02:31:19 PM 53.7800 -13.6100 106° East 509 586 35,000  Level FlightAware ADS-B
Fri 02:31:49 PM 53.7610 -13.4930 105° East 508 585 35,000  Level FlightAware ADS-B
Fri 02:32:24 PM 53.7410 -13.3730 106° East 507 583 35,000  Level FlightAware ADS-B
Fri 02:33:04 PM 53.7130 -13.2080 106° East 507 583 35,000  Level FlightAware ADS-B
Fri 02:33:40 PM 53.6900 -13.0710 106° East 505 581 35,000  Level FlightAware ADS-B
Fri 02:34:10 PM 53.6710 -12.9580 106° East 504 580 35,000  Level FlightAware ADS-B
Fri 02:34:45 PM 53.6480 -12.8270 106° East 503 579 35,000  Level FlightAware ADS-B
Fri 02:35:20 PM 53.6250 -12.6920 106° East 502 578 35,000  Level FlightAware ADS-B
Fri 02:35:55 PM 53.6030 -12.5650 106° East 505 581 35,000  Level FlightAware ADS-B
Fri 02:36:30 PM 53.5790 -12.4300 107° East 504 580 35,000  Level FlightAware ADS-B
Fri 02:37:05 PM 53.5560 -12.3000 107° East 505 581 35,000  Level FlightAware ADS-B
Fri 02:37:45 PM 53.5290 -12.1500 107° East 506 582 35,000  Level FlightAware ADS-B
Fri 02:38:15 PM 53.5090 -12.0390 107° East 506 582 35,000  Level FlightAware ADS-B
Fri 02:38:50 PM 53.4850 -11.9050 107° East 506 582 35,000  Level FlightAware ADS-B
Fri 02:39:30 PM 53.4580 -11.7590 107° East 503 579 35,000  Level FlightAware ADS-B
Fri 02:40:00 PM 53.4370 -11.6430 107° East 504 580 35,000  Level FlightAware ADS-B
Fri 02:40:37 PM 53.4130 -11.5120 107° East 503 579 35,000  Level FlightAware ADS-B
Fri 02:41:10 PM 53.3890 -11.3850 108° East 500 575 35,000  Level FlightAware ADS-B
Fri 02:41:45 PM 53.3640 -11.2530 108° East 498 573 35,000  Level FlightAware ADS-B
Fri 02:42:20 PM 53.3410 -11.1260 107° East 498 573 35,000  Level FlightAware ADS-B
Fri 02:42:55 PM 53.3150 -10.9940 108° East 497 572 35,000  Level FlightAware ADS-B
Fri 02:43:35 PM 53.2880 -10.8510 107° East 495 570 35,000  Level FlightAware ADS-B
Fri 02:44:06 PM 53.2660 -10.7380 108° East 495 570 35,000  Level FlightAware ADS-B
Fri 02:44:40 PM 53.2430 -10.6150 107° East 495 570 35,000  Level FlightAware ADS-B
Fri 02:45:20 PM 53.2140 -10.4700 108° East 495 570 35,000  Level FlightAware ADS-B
Fri 02:45:50 PM 53.1930 -10.3600 108° East 494 568 35,000  Level FlightAware ADS-B
Fri 02:46:30 PM 53.1630 -10.2110 109° East 494 568 35,000  Level FlightAware ADS-B
Fri 02:47:00 PM 53.1420 -10.1050 108° East 495 570 35,000  Level FlightAware ADS-B
Fri 02:47:35 PM 53.1160 -9.9770 109° East 494 568 35,000  Level FlightAware ADS-B
Fri 02:48:11 PM 53.0910 -9.8510 108° East 494 568 35,000  Level FlightAware ADS-B
Fri 02:48:45 PM 53.0650 -9.7240 109° East 495 570 35,000  Level FlightAware ADS-B
Fri 02:49:20 PM 53.0400 -9.6010 109° East 494 568 35,000  Level FlightAware ADS-B
Fri 02:49:55 PM 53.0150 -9.4790 109° East 493 567 35,000  Level FlightAware ADS-B
Fri 02:50:35 PM 52.9860 -9.3400 109° East 493 567 35,000  Level FlightAware ADS-B
Fri 02:51:05 PM 52.9620 -9.2240 109° East 493 567 35,000  Level FlightAware ADS-B
Fri 02:51:41 PM 52.9360 -9.1010 109° East 492 566 35,000  Level FlightAware ADS-B
Fri 02:52:20 PM 52.9060 -8.9590 109° East 492 566 35,000  Level FlightAware ADS-B
Fri 02:52:50 PM 52.8840 -8.8540 109° East 491 565 35,000  Level FlightAware ADS-B
Fri 02:53:25 PM 52.8570 -8.7280 109° East 492 566 35,000  Level FlightAware ADS-B
Fri 02:54:00 PM 52.8310 -8.6060 109° East 492 566 35,000  Level FlightAware ADS-B
Fri 02:54:35 PM 52.8040 -8.4790 109° East 492 566 35,000  Level FlightAware ADS-B
Fri 02:54:38 PM 52.8009 -8.4636 109° East 490 564 35,000  Level FlightAware UK
Fri 02:55:08 PM 52.7777 -8.3562 109° East 490 564 35,000  Level FlightAware UK
Fri 02:55:12 PM 52.7770 -8.3580 109° East 492 566 35,000  Level FlightAware ADS-B
Fri 02:55:45 PM 52.7490 -8.2300 110° East 489 563 35,000  Level FlightAware ADS-B
Fri 02:56:20 PM 52.7230 -8.1090 109° East 489 563 35,000  Level FlightAware ADS-B
Fri 02:56:55 PM 52.6960 -7.9890 110° East 487 560 35,000  Level FlightAware ADS-B
Fri 02:57:30 PM 52.6680 -7.8640 110° East 486 559 35,000  Level FlightAware ADS-B
Fri 02:58:05 PM 52.6420 -7.7460 110° East 485 558 35,000  Level FlightAware ADS-B
Fri 02:58:08 PM 52.6378 -7.7255 110° East 488 562 35,000  Level FlightAware UK
Fri 02:58:38 PM 52.6146 -7.6212 110° East 488 562 35,000  Level FlightAware UK
Fri 02:58:42 PM 52.6140 -7.6210 110° East 485 558 35,000  Level FlightAware ADS-B
Fri 02:59:15 PM 52.5870 -7.5010 110° East 486 559 35,000  Level FlightAware ADS-B
Fri 02:59:50 PM 52.5590 -7.3780 110° East 485 558 35,000  Level FlightAware ADS-B
Fri 03:00:30 PM 52.5280 -7.2420 110° East 486 559 35,000  Level FlightAware ADS-B
Fri 03:01:00 PM 52.5030 -7.1350 111° Southeast 486 559 35,000  Level FlightAware ADS-B
Fri 03:01:35 PM 52.4760 -7.0180 111° Southeast 487 560 35,000  Level FlightAware ADS-B
Fri 03:01:39 PM 52.4715 -6.9979 111° Southeast 488 562 35,000  Level FlightAware UK
Fri 03:02:09 PM 52.4473 -6.8942 111° Southeast 490 564 35,000  Level FlightAware UK
Fri 03:02:10 PM 52.4470 -6.8940 111° Southeast 487 560 35,000  Level FlightAware ADS-B
Fri 03:02:45 PM 52.4200 -6.7780 111° Southeast 489 563 35,000  Level FlightAware ADS-B
Fri 03:03:22 PM 52.3880 -6.6420 111° Southeast 489 563 35,000  Level FlightAware ADS-B
Fri 03:03:22 PM 52.3880 -6.6420 111° Southeast 489 563 35,000  Level FlightAware ADS-B
Fri 03:03:56 PM 52.3600 -6.5250 111° Southeast 489 563 35,000  Level FlightAware ADS-B
Fri 03:03:56 PM 52.3600 -6.5250 111° Southeast 489 563 35,000  Level FlightAware ADS-B
Fri 03:04:34 PM 52.3290 -6.3940 111° Southeast 488 562 35,000  Level FlightAware ADS-B
Fri 03:04:34 PM 52.3290 -6.3940 111° Southeast 488 562 35,000  Level FlightAware ADS-B
Fri 03:05:08 PM 52.3010 -6.2800 111° Southeast 487 560 35,000  Level FlightAware ADS-B
Fri 03:05:08 PM 52.3010 -6.2800 111° Southeast 487 560 35,000  Level FlightAware ADS-B
Fri 03:05:09 PM 52.3005 -6.2751 111° Southeast 490 564 35,000  Level FlightAware UK
Fri 03:05:09 PM 52.3005 -6.2751 111° Southeast 490 564 35,000  Level FlightAware UK
Fri 03:05:39 PM 52.2758 -6.1728 111° Southeast 488 562 35,000  Level FlightAware UK
Fri 03:05:39 PM 52.2758 -6.1728 111° Southeast 488 562 35,000  Level FlightAware UK
Fri 03:05:43 PM 52.2730 -6.1610 111° Southeast 486 559 35,000  Level FlightAware ADS-B
Fri 03:05:43 PM 52.2730 -6.1610 111° Southeast 486 559 35,000  Level FlightAware ADS-B
Fri 03:06:19 PM 52.2440 -6.0380 111° Southeast 486 559 35,000  Level FlightAware ADS-B
Fri 03:06:19 PM 52.2440 -6.0380 111° Southeast 486 559 35,000  Level FlightAware ADS-B
Fri 03:06:51 PM 52.2180 -5.9290 111° Southeast 485 558 35,000  Level FlightAware ADS-B
Fri 03:06:51 PM 52.2180 -5.9290 111° Southeast 485 558 35,000  Level FlightAware ADS-B
Fri 03:07:27 PM 52.1900 -5.8050 110° East 485 558 35,000  Level FlightAware ADS-B
Fri 03:07:27 PM 52.1900 -5.8050 110° East 485 558 35,000  Level FlightAware ADS-B
Fri 03:08:04 PM 52.1600 -5.6770 111° Southeast 486 559 35,000  Level FlightAware ADS-B
Fri 03:08:04 PM 52.1600 -5.6770 111° Southeast 486 559 35,000  Level FlightAware ADS-B
Fri 03:08:35 PM 52.1370 -5.5760 111° Southeast 487 560 35,000  Level FlightAware ADS-B
Fri 03:08:35 PM 52.1370 -5.5760 111° Southeast 487 560 35,000  Level FlightAware ADS-B
Fri 03:08:39 PM 52.1328 -5.5580 111° Southeast 488 562 35,000  Level FlightAware UK
Fri 03:08:39 PM 52.1328 -5.5580 111° Southeast 488 562 35,000  Level FlightAware UK
Fri 03:09:09 PM 52.1096 -5.4551 111° Southeast 490 564 35,000  Level FlightAware UK
Fri 03:09:09 PM 52.1100 -5.4570 111° Southeast 488 562 35,000  Level FlightAware ADS-B
Fri 03:09:09 PM 52.1100 -5.4570 111° Southeast 488 562 35,000  Level FlightAware ADS-B
Fri 03:09:09 PM 52.1096 -5.4551 111° Southeast 490 564 35,000  Level FlightAware UK
Fri 03:09:39 PM 52.0865 -5.3520 111° Southeast 490 564 35,000  Level FlightAware UK
Fri 03:09:39 PM 52.0865 -5.3520 111° Southeast 490 564 35,000  Level FlightAware UK
Fri 03:09:47 PM 52.0800 -5.3260 111° Southeast 488 562 35,000  Level FlightAware ADS-B
Fri 03:09:47 PM 52.0800 -5.3260 111° Southeast 488 562 35,000  Level FlightAware ADS-B
Fri 03:10:22 PM 52.0530 -5.2060 110° East 487 560 35,000  Level FlightAware ADS-B
Fri 03:10:22 PM 52.0530 -5.2060 110° East 487 560 35,000  Level FlightAware ADS-B
Fri 03:10:54 PM 52.0280 -5.0940 110° East 487 560 35,000  Level FlightAware ADS-B
Fri 03:10:54 PM 52.0280 -5.0940 110° East 487 560 35,000  Level FlightAware ADS-B
Fri 03:11:09 PM 52.0165 -5.0429 110° East 492 566 35,000  Level FlightAware UK
Fri 03:11:09 PM 52.0165 -5.0429 110° East 492 566 35,000  Level FlightAware UK
Fri 03:11:39 PM 51.9931 -4.9395 110° East 494 568 35,000  Level FlightAware UK
Fri 03:11:39 PM 51.9931 -4.9395 110° East 494 568 35,000  Level FlightAware UK
Fri 03:11:41 PM 51.9920 -4.9360 110° East 487 560 35,000  Level FlightAware ADS-B
Fri 03:11:41 PM 51.9920 -4.9360 110° East 487 560 35,000  Level FlightAware ADS-B
Fri 03:12:15 PM 51.9654 -4.8162 110° East 492 566 35,000  Level FlightAware UK
Fri 03:12:15 PM 51.9654 -4.8162 110° East 492 566 35,000  Level FlightAware UK
Fri 03:12:21 PM 51.9620 -4.8010 110° East 486 559 35,000  Level FlightAware ADS-B
Fri 03:12:21 PM 51.9620 -4.8010 110° East 486 559 35,000  Level FlightAware ADS-B
Fri 03:12:51 PM 51.9400 -4.6970 109° East 485 558 35,000  Level FlightAware ADS-B
Fri 03:12:51 PM 51.9400 -4.6970 109° East 485 558 35,000  Level FlightAware ADS-B
Fri 03:13:32 PM 51.9110 -4.5620 109° East 482 555 35,000  Level FlightAware ADS-B
Fri 03:13:32 PM 51.9110 -4.5620 109° East 482 555 35,000  Level FlightAware ADS-B
Fri 03:14:09 PM 51.8830 -4.4320 109° East 479 551 35,000  Level FlightAware ADS-B
Fri 03:14:09 PM 51.8830 -4.4320 109° East 479 551 35,000  Level FlightAware ADS-B
Fri 03:14:44 PM 51.8580 -4.3140 109° East 478 550 35,000  Level FlightAware ADS-B
Fri 03:14:44 PM 51.8580 -4.3140 109° East 478 550 35,000  Level FlightAware ADS-B
Fri 03:14:45 PM 51.8560 -4.3046 109° East 494 568 35,000  Level FlightAware UK
Fri 03:14:45 PM 51.8560 -4.3046 109° East 494 568 35,000  Level FlightAware UK
Fri 03:15:15 PM 51.8345 -4.2022 109° East 496 571 35,000  Level FlightAware UK
Fri 03:15:15 PM 51.8345 -4.2022 109° East 496 571 35,000  Level FlightAware UK
Fri 03:15:24 PM 51.8300 -4.1820 109° East 476 548 35,000  Level FlightAware ADS-B
Fri 03:15:24 PM 51.8300 -4.1820 109° East 476 548 35,000  Level FlightAware ADS-B
Fri 03:15:54 PM 51.8080 -4.0770 109° East 476 548 35,000  Level FlightAware ADS-B
Fri 03:15:54 PM 51.8080 -4.0770 109° East 476 548 35,000  Level FlightAware ADS-B
Fri 03:16:29 PM 51.7840 -3.9590 108° East 475 547 35,000  Level FlightAware ADS-B
Fri 03:16:29 PM 51.7840 -3.9590 108° East 475 547 35,000  Level FlightAware ADS-B
Fri 03:17:04 PM 51.7610 -3.8520 109° East 477 549 35,000  Level FlightAware ADS-B
Fri 03:17:04 PM 51.7610 -3.8520 109° East 477 549 35,000  Level FlightAware ADS-B
Fri 03:17:39 PM 51.7350 -3.7220 108° East 475 547 35,000  Level FlightAware ADS-B
Fri 03:17:39 PM 51.7350 -3.7220 108° East 475 547 35,000  Level FlightAware ADS-B
Fri 03:18:14 PM 51.7170 -3.6120 105° East 479 551 35,000  Level FlightAware ADS-B
Fri 03:18:14 PM 51.7170 -3.6120 105° East 479 551 35,000  Level FlightAware ADS-B
Fri 03:18:46 PM 51.7056 -3.4844 98° East 483 556 35,000  Level FlightAware ADS-B
Fri 03:18:46 PM 51.7056 -3.4844 98° East 483 556 35,000  Level FlightAware ADS-B
Fri 03:19:21 PM 51.6952 -3.3576 98° East 494 568 35,000  Level FlightAware UK
Fri 03:19:21 PM 51.6952 -3.3576 98° East 494 568 35,000  Level FlightAware UK
Fri 03:19:29 PM 51.6930 -3.3360 98° East 480 552 35,000  Level FlightAware ADS-B
Fri 03:19:29 PM 51.6930 -3.3360 98° East 480 552 35,000  Level FlightAware ADS-B
Fri 03:19:42 PM 51.6890 -3.2864 97° East 481 554 35,000  Level FlightAware ADS-B
Fri 03:19:42 PM 51.6890 -3.2864 97° East 481 554 35,000  Level FlightAware ADS-B
Fri 03:20:18 PM 51.6786 -3.1598 97° East 481 554 35,000  Level FlightAware ADS-B
Fri 03:20:18 PM 51.6786 -3.1598 97° East 481 554 35,000  Level FlightAware ADS-B
Fri 03:20:49 PM 51.6691 -3.0477 98° East 479 551 35,000  Level FlightAware ADS-B
Fri 03:20:49 PM 51.6691 -3.0477 98° East 479 551 35,000  Level FlightAware ADS-B
Fri 03:21:20 PM 51.6598 -2.9385 98° East 478 550 35,000  Level FlightAware ADS-B
Fri 03:21:20 PM 51.6598 -2.9385 98° East 478 550 35,000  Level FlightAware ADS-B
Fri 03:21:54 PM 51.6501 -2.8203 97° East 477 549 35,000  Level FlightAware ADS-B
Fri 03:21:54 PM 51.6501 -2.8203 97° East 477 549 35,000  Level FlightAware ADS-B
Fri 03:22:25 PM 51.6420 -2.7131 97° East 476 548 35,000  Level FlightAware ADS-B
Fri 03:22:25 PM 51.6420 -2.7131 97° East 476 548 35,000  Level FlightAware ADS-B
Fri 03:22:55 PM 51.6340 -2.6060 97° East 477 549 35,000  Level FlightAware ADS-B
Fri 03:22:55 PM 51.6340 -2.6060 97° East 477 549 35,000  Level FlightAware ADS-B
Fri 03:23:26 PM 51.6266 -2.4981 96° East 478 550 35,000  Level FlightAware ADS-B
Fri 03:23:26 PM 51.6266 -2.4981 96° East 478 550 35,000  Level FlightAware ADS-B
Fri 03:23:58 PM 51.6184 -2.3839 97° East 475 547 35,000  Level FlightAware ADS-B
Fri 03:23:58 PM 51.6184 -2.3839 97° East 475 547 35,000  Level FlightAware ADS-B
Fri 03:24:28 PM 51.6076 -2.2802 99° East 471 542 35,000  Level FlightAware ADS-B
Fri 03:24:28 PM 51.6076 -2.2802 99° East 471 542 35,000  Level FlightAware ADS-B
Fri 03:24:59 PM 51.5970 -2.1756 99° East 470 541 35,000  Level FlightAware ADS-B
Fri 03:24:59 PM 51.5970 -2.1756 99° East 470 541 35,000  Level FlightAware ADS-B
Fri 03:25:29 PM 51.5869 -2.0722 99° East 470 541 35,000  Level FlightAware ADS-B
Fri 03:25:29 PM 51.5869 -2.0722 99° East 470 541 35,000  Level FlightAware ADS-B
Fri 03:25:59 PM 51.5769 -1.9683 99° East 470 541 35,000  Level FlightAware ADS-B
Fri 03:25:59 PM 51.5769 -1.9683 99° East 470 541 35,000  Level FlightAware ADS-B
Fri 03:26:29 PM 51.5670 -1.8640 99° East 469 540 35,000  Level FlightAware ADS-B
Fri 03:26:29 PM 51.5670 -1.8640 99° East 469 540 35,000  Level FlightAware ADS-B
Fri 03:27:00 PM 51.5571 -1.7592 99° East 467 537 35,000  Level FlightAware ADS-B
Fri 03:27:00 PM 51.5571 -1.7592 99° East 467 537 35,000  Level FlightAware ADS-B
Fri 03:27:31 PM 51.5472 -1.6545 99° East 468 539 35,000  Level FlightAware ADS-B
Fri 03:27:31 PM 51.5472 -1.6545 99° East 468 539 35,000  Level FlightAware ADS-B
Fri 03:28:02 PM 51.5376 -1.5462 98° East 470 541 35,000  Level FlightAware ADS-B
Fri 03:28:02 PM 51.5376 -1.5462 98° East 470 541 35,000  Level FlightAware ADS-B
Fri 03:28:33 PM 51.5284 -1.4391 98° East 471 542 35,000  Level FlightAware ADS-B
Fri 03:28:33 PM 51.5284 -1.4391 98° East 471 542 35,000  Level FlightAware ADS-B
Fri 03:29:04 PM 51.5193 -1.3326 98° East 474 545 35,000  Level FlightAware ADS-B
Fri 03:29:04 PM 51.5193 -1.3326 98° East 474 545 35,000  Level FlightAware ADS-B
Fri 03:29:34 PM 51.5099 -1.2278 98° East 477 549 35,000  Level FlightAware ADS-B
Fri 03:29:34 PM 51.5099 -1.2278 98° East 477 549 35,000  Level FlightAware ADS-B
Fri 03:30:04 PM 51.5004 -1.1215 98° East 479 551 35,000  Level FlightAware ADS-B
Fri 03:30:04 PM 51.5004 -1.1215 98° East 479 551 35,000  Level FlightAware ADS-B
Fri 03:30:35 PM 51.4906 -1.0143 98° East 481 554 35,000  Level FlightAware ADS-B
Fri 03:30:35 PM 51.4906 -1.0143 98° East 481 554 35,000  Level FlightAware ADS-B
Fri 03:31:09 PM 51.4795 -0.8938 98° East 483 556 35,000  Level FlightAware ADS-B
Fri 03:31:09 PM 51.4795 -0.8938 98° East 483 556 35,000  Level FlightAware ADS-B
Fri 03:31:40 PM 51.4691 -0.7823 98° East 485 558 35,000  Level FlightAware ADS-B
Fri 03:31:40 PM 51.4691 -0.7823 98° East 485 558 35,000  Level FlightAware ADS-B
Fri 03:32:10 PM 51.4590 -0.6754 99° East 487 560 35,000  Level FlightAware ADS-B
Fri 03:32:10 PM 51.4590 -0.6754 99° East 487 560 35,000  Level FlightAware ADS-B
Fri 03:32:41 PM 51.4487 -0.5672 99° East 488 562 35,000  Level FlightAware ADS-B
Fri 03:32:41 PM 51.4487 -0.5672 99° East 488 562 35,000  Level FlightAware ADS-B
Fri 03:33:11 PM 51.4384 -0.4595 99° East 488 562 35,000  Level FlightAware ADS-B
Fri 03:33:11 PM 51.4384 -0.4595 99° East 488 562 35,000  Level FlightAware ADS-B
Fri 03:33:42 PM 51.4277 -0.3500 99° East 489 563 35,000  Level FlightAware ADS-B
Fri 03:33:42 PM 51.4277 -0.3500 99° East 489 563 35,000  Level FlightAware ADS-B
Fri 03:34:15 PM 51.4162 -0.2327 99° East 490 564 35,000  Level FlightAware ADS-B
Fri 03:34:15 PM 51.4162 -0.2327 99° East 490 564 35,000  Level FlightAware ADS-B
Fri 03:34:47 PM 51.4047 -0.1157 99° East 491 565 35,000  Level FlightAware ADS-B
Fri 03:34:47 PM 51.4047 -0.1157 99° East 491 565 35,000  Level FlightAware ADS-B
Fri 03:35:20 PM 51.3934 -0.0007 99° East 492 566 35,000  Level FlightAware ADS-B
Fri 03:35:20 PM 51.3934 -0.0007 99° East 492 566 35,000  Level FlightAware ADS-B
Fri 03:35:51 PM 51.3820 0.1109 99° East 491 565 35,000  Level FlightAware ADS-B
Fri 03:35:51 PM 51.3820 0.1109 99° East 491 565 35,000  Level FlightAware ADS-B
Fri 03:36:21 PM 51.3708 0.2191 99° East 489 563 35,000  Level FlightAware ADS-B
Fri 03:36:21 PM 51.3708 0.2191 99° East 489 563 35,000  Level FlightAware ADS-B
Fri 03:36:52 PM 51.3595 0.3287 99° East 488 562 35,000  Level FlightAware ADS-B
Fri 03:36:52 PM 51.3595 0.3287 99° East 488 562 35,000  Level FlightAware ADS-B
Fri 03:37:24 PM 51.3475 0.4435 99° East 485 558 35,000  Level FlightAware ADS-B
Fri 03:37:24 PM 51.3475 0.4435 99° East 485 558 35,000  Level FlightAware ADS-B
Fri 03:37:56 PM 51.3361 0.5526 99° East 482 555 35,000  Level FlightAware ADS-B
Fri 03:37:56 PM 51.3361 0.5526 99° East 482 555 35,000  Level FlightAware ADS-B
Fri 03:38:26 PM 51.3251 0.6580 99° East 480 552 35,000  Level FlightAware ADS-B
Fri 03:38:26 PM 51.3251 0.6580 99° East 480 552 35,000  Level FlightAware ADS-B
Fri 03:38:56 PM 51.3138 0.7631 100° East 475 547 35,000  Level FlightAware ADS-B
Fri 03:38:56 PM 51.3138 0.7631 100° East 475 547 35,000  Level FlightAware ADS-B
Fri 03:39:28 PM 51.3020 0.8732 100° East 471 542 35,000  Level FlightAware ADS-B
Fri 03:39:28 PM 51.3020 0.8732 100° East 471 542 35,000  Level FlightAware ADS-B
Fri 03:40:01 PM 51.2898 0.9848 100° East 468 539 35,000  Level FlightAware ADS-B
Fri 03:40:01 PM 51.2898 0.9848 100° East 468 539 35,000  Level FlightAware ADS-B
Fri 03:40:31 PM 51.2786 1.0865 100° East 466 536 35,000  Level FlightAware ADS-B
Fri 03:40:31 PM 51.2786 1.0865 100° East 466 536 35,000  Level FlightAware ADS-B
Fri 03:41:02 PM 51.2670 1.1903 100° East 463 533 35,000  Level FlightAware ADS-B
Fri 03:41:02 PM 51.2670 1.1903 100° East 463 533 35,000  Level FlightAware ADS-B
Fri 03:41:33 PM 51.2555 1.2938 100° East 463 533 35,000  Level FlightAware ADS-B
Fri 03:41:33 PM 51.2555 1.2938 100° East 463 533 35,000  Level FlightAware ADS-B
Fri 03:42:03 PM 51.2442 1.3947 100° East 462 532 35,000  Level FlightAware ADS-B
Fri 03:42:03 PM 51.2442 1.3947 100° East 462 532 35,000  Level FlightAware ADS-B
Fri 03:42:54 PM 51.2258 1.5687 100° East 470 541 35,000  Level FlightAware UK
Fri 03:42:54 PM 51.2258 1.5687 100° East 470 541 35,000  Level FlightAware UK
Fri 03:42:55 PM 51.2260 1.5650 100° East 463 533 35,000  Level FlightAware ADS-B
Fri 03:42:55 PM 51.2260 1.5650 100° East 463 533 35,000  Level FlightAware ADS-B
Fri 03:43:25 PM 51.2154 1.6700 100° East 472 543 35,000  Level FlightAware UK
Fri 03:43:25 PM 51.2154 1.6700 100° East 472 543 35,000  Level FlightAware UK
Fri 03:43:36 PM 51.2114 1.7076 100° East 463 533 35,000  Level FlightAware ADS-B
Fri 03:43:36 PM 51.2114 1.7076 100° East 463 533 35,000  Level FlightAware ADS-B
Fri 03:44:07 PM 51.2003 1.8118 100° East 463 533 35,000  Level FlightAware ADS-B
Fri 03:44:07 PM 51.2003 1.8118 100° East 463 533 35,000  Level FlightAware ADS-B
Fri 03:44:39 PM 51.1888 1.9178 100° East 463 533 35,000  Level FlightAware ADS-B
Fri 03:44:39 PM 51.1888 1.9178 100° East 463 533 35,000  Level FlightAware ADS-B
Fri 03:45:17 PM 51.1745 2.0466 100° East 463 533 35,000  Level FlightAware ADS-B
Fri 03:45:17 PM 51.1745 2.0466 100° East 463 533 35,000  Level FlightAware ADS-B
Fri 03:45:47 PM 51.1634 2.1481 100° East 464 534 35,000  Level FlightAware ADS-B
Fri 03:45:47 PM 51.1634 2.1481 100° East 464 534 35,000  Level FlightAware ADS-B
Fri 03:46:18 PM 51.1518 2.2509 100° East 464 534 35,000  Level FlightAware ADS-B
Fri 03:46:18 PM 51.1518 2.2509 100° East 464 534 35,000  Level FlightAware ADS-B
Fri 03:46:53 PM 51.1388 2.3674 100° East 465 535 35,000  Level FlightAware ADS-B
Fri 03:46:53 PM 51.1388 2.3674 100° East 465 535 35,000  Level FlightAware ADS-B
Fri 03:47:36 PM 51.1220 2.5120 100° East 467 537 35,000  Level FlightAware ADS-B
Fri 03:47:36 PM 51.1220 2.5120 100° East 467 537 35,000  Level FlightAware ADS-B
Fri 03:48:07 PM 51.1100 2.6188 100° East 472 543 35,000  Level FlightAware UK
Fri 03:48:07 PM 51.1100 2.6188 100° East 472 543 35,000  Level FlightAware UK
Fri 03:48:09 PM 51.1100 2.6190 100° East 467 537 35,000  Level FlightAware ADS-B
Fri 03:48:09 PM 51.1100 2.6190 100° East 467 537 35,000  Level FlightAware ADS-B
Fri 03:48:43 PM 51.0961 2.7403 100° East 474 545 35,000  Level FlightAware UK
Fri 03:48:43 PM 51.0960 2.7400 100° East 467 537 35,000  Level FlightAware ADS-B
Fri 03:48:43 PM 51.0961 2.7403 100° East 474 545 35,000  Level FlightAware UK
Fri 03:48:43 PM 51.0960 2.7400 100° East 467 537 35,000  Level FlightAware ADS-B
Fri 03:49:19 PM 51.0817 2.8617 100° East 472 543 35,000  Level FlightAware UK
Fri 03:49:55 PM 51.0674 2.9834 101° East 474 545 35,000  Level FlightAware UK
Fri 03:50:25 PM 51.0554 3.0849 101° East 478 550 35,000  Level FlightAware UK
Fri 03:51:01 PM 51.0409 3.2070 101° East 478 550 35,000  Level FlightAware UK
Fri 03:51:31 PM 51.0292 3.3080 100° East 476 548 35,000  Level FlightAware UK
Fri 03:52:19 PM 51.0089 3.4680 101° East 476 548 35,000  Level FlightAware UK
Fri 03:52:49 PM 50.9968 3.5682 101° East 476 548 35,000  Level FlightAware UK
Fri 03:53:31 PM 50.9794 3.7078 101° East 476 548 35,000 -429 Level FlightAware UK
Fri 03:54:13 PM 50.9619 3.8468 101° East 474 545 34,400 -1,143 Descending FlightAware UK
Fri 03:54:55 PM 50.9434 3.9855 102° East 478 550 33,400 -1,357 Descending FlightAware UK
Fri 03:55:37 PM 50.9252 4.1260 102° East 478 550 32,500 -1,400 Descending FlightAware UK
Fri 03:56:25 PM 50.9041 4.2876 102° East 480 552 31,300 -1,367 Descending FlightAware UK
Fri 03:56:56 PM 50.8905 4.3912 102° East 484 557 30,700 -1,180 Descending FlightAware UK
Fri 03:57:26 PM 50.8774 4.4950 101° East 490 564 30,100 -909 Descending FlightAware UK
Fri 03:58:02 PM 50.8617 4.6187 101° East 484 557 29,700 -545 Descending FlightAware UK
Fri 03:58:32 PM 50.8496 4.7212 101° East 478 550 29,500 -400 Descending FlightAware UK
Fri 04:00:00 PM 50.8545 5.0322 88° East  Level Estimated
Fri 04:07:00 PM 50.8665 6.5172 89° East  Level Estimated
Fri 04:08:00 PM 50.8667 6.7294 90° East  Level Estimated
Fri 04:09:00 PM 50.8665 6.9416 90° East  Level Estimated
Fri 04:10:00 PM 50.8659 7.1427 90° East  Level Estimated
Fri 04:11:00 PM 50.8659 7.1427 140° Southeast  Level Estimated
Fri 04:12:00 PM 50.8659 7.1427 140° Southeast  Level Estimated
Fri 04:13:00 PM 50.8659 7.1427 140° Southeast  Level Estimated
Fri 04:14:00 PM 50.8659 7.1427 140° Southeast  Level Estimated
Fri 04:15:00 PM 50.8659 7.1427 140° Southeast  Level Estimated
Fri 04:16:00 PM 50.8659 7.1427 140° Southeast  Level Estimated
Fri 04:17:00 PM 50.8659 7.1427 140° Southeast  Level Estimated
Fri 04:18:00 PM 50.8659 7.1427 140° Southeast  Level Estimated
Fri 04:19:00 PM 50.8659 7.1427 140° Southeast  Level Estimated
Fri 04:20:00 PM 50.8659 7.1427 140° Southeast  Level Estimated
Fri 04:21:00 PM 50.8659 7.1427 140° Southeast  Level Estimated
Fri 04:22:00 PM 50.8659 7.1427 140° Southeast  Level Estimated
Fri 04:23:00 PM 50.8659 7.1427 140° Southeast  Level Estimated
Fri 04:24:00 PM 50.8659 7.1427 140° Southeast  Level Estimated
Fri 04:25:00 PM 50.8659 7.1427 140° Southeast  Level Estimated
Fri 04:26:00 PM 50.8659 7.1427 140° Southeast  Level Estimated
Fri 04:27:00 PM 50.8659 7.1427 140° Southeast  Level Estimated
Fri 04:28:00 PM 50.8659 7.1427 140° Southeast  Level Estimated
Fri 04:29:00 PM 50.8659 7.1427 140° Southeast  Level Estimated
Fri 04:30:00 PM 50.8659 7.1427 140° Southeast  Level Estimated
Fri 04:31:00 PM 50.8659 7.1427 140° Southeast  Level Estimated
Fri 04:32:00 PM 50.8659 7.1427 140° Southeast  Level Estimated
Fri 04:33:00 PM 50.8659 7.1427 140° Southeast  Level Estimated

Login

Don't have an account? Register now (free) for customized features, flight alerts, and more!